createdAt,value
2018-10-18T00:03:38.228Z,100652.44
2018-10-18T00:08:41.636Z,100650.13
2018-10-18T00:13:45.113Z,100660.02
2018-10-18T00:18:48.533Z,100655.13
2018-10-18T00:23:51.983Z,100652.08
2018-10-18T00:28:55.392Z,100649.52
2018-10-18T00:33:58.808Z,100651.72
2018-10-18T00:39:02.241Z,100654.13
2018-10-18T00:44:06.327Z,100651.44
2018-10-18T00:49:09.736Z,100658.52
2018-10-18T00:54:13.224Z,100656.81
2018-10-18T00:59:16.581Z,100658.89
2018-10-18T01:04:20.007Z,100658.40
2018-10-18T01:09:23.425Z,100654.86
2018-10-18T01:14:27.464Z,100645.94
2018-10-18T01:19:32.361Z,100649.12
2018-10-18T01:24:36.596Z,100648.75
2018-10-18T01:29:40.014Z,100649.24
2018-10-18T01:34:43.436Z,100647.41
2018-10-18T01:39:46.847Z,100649.24
2018-10-18T01:44:50.283Z,100646.55
2018-10-18T01:49:53.721Z,100651.44
2018-10-18T01:54:57.300Z,100655.10
2018-10-18T02:00:00.778Z,100658.16
2018-10-18T02:05:04.164Z,100646.19
2018-10-18T02:10:07.825Z,100649.36
2018-10-18T02:15:11.744Z,100648.48
2018-10-18T02:20:15.161Z,100643.22
2018-10-18T02:25:18.641Z,100647.25
2018-10-18T02:30:22.195Z,100649.94
2018-10-18T02:35:25.508Z,100653.60
2018-10-18T02:40:29.264Z,100653.73
2018-10-18T02:45:32.668Z,100648.84
2018-10-18T02:50:36.068Z,100645.30
2018-10-18T02:55:39.484Z,100647.63
2018-10-18T03:00:42.911Z,100650.80
2018-10-18T03:05:46.321Z,100651.66
2018-10-18T03:10:49.738Z,100650.80
2018-10-18T03:15:53.153Z,100646.89
2018-10-18T03:20:56.571Z,100654.58
2018-10-18T03:25:59.968Z,100650.15
2018-10-18T03:31:03.375Z,100659.19
2018-10-18T03:36:06.834Z,100652.34
2018-10-18T03:41:10.204Z,100643.92
2018-10-18T03:46:13.633Z,100648.55
2018-10-18T03:51:17.049Z,100650.48
2018-10-18T03:56:20.448Z,100657.68
2018-10-18T04:01:23.861Z,100657.56
2018-10-18T04:06:27.274Z,100659.27
2018-10-18T04:11:30.684Z,100663.38
2018-10-18T04:16:34.097Z,100671.65
2018-10-18T04:21:37.506Z,100672.62
2018-10-18T04:26:40.917Z,100676.28
2018-10-18T04:31:44.327Z,100677.99
2018-10-18T04:36:47.764Z,100675.91
2018-10-18T04:41:51.166Z,100683.12
2018-10-18T04:46:54.568Z,100685.44
2018-10-18T04:51:57.982Z,100684.09
2018-10-18T04:57:01.486Z,100689.09
2018-10-18T05:02:05.053Z,100691.41
2018-10-18T05:07:08.507Z,100707.04
2018-10-18T05:12:11.910Z,100710.33
2018-10-18T05:17:15.330Z,100707.27
2018-10-18T05:22:18.753Z,100712.65
2018-10-18T05:27:22.169Z,100716.74
2018-10-18T05:32:25.816Z,100727.30
2018-10-18T05:37:29.258Z,100729.91
2018-10-18T05:42:32.656Z,100742.81
2018-10-18T05:47:36.076Z,100748.35
2018-10-18T05:52:39.593Z,100749.89
2018-10-18T05:57:43.069Z,100758.16
2018-10-18T06:02:46.775Z,100760.22
2018-10-18T06:07:50.180Z,100759.73
2018-10-18T06:12:53.875Z,100767.59
2018-10-18T06:17:57.254Z,100781.20
2018-10-18T06:23:00.718Z,100785.16
2018-10-18T06:28:04.097Z,100790.38
2018-10-18T06:33:07.544Z,100787.06
2018-10-18T06:38:10.944Z,100778.34
2018-10-18T06:43:14.427Z,100796.37
2018-10-18T06:48:17.796Z,100799.91
2018-10-18T06:53:21.211Z,100801.47
2018-10-18T06:58:24.625Z,100798.98
2018-10-18T07:03:28.041Z,100801.47
2018-10-18T07:08:31.452Z,100807.80
2018-10-18T07:13:34.893Z,100807.47
2018-10-18T07:18:38.318Z,100806.87
2018-10-18T07:23:41.724Z,100806.69
2018-10-18T07:28:45.147Z,100820.29
2018-10-18T07:33:48.564Z,100818.05
2018-10-18T07:38:51.973Z,100817.61
2018-10-18T07:43:55.377Z,100830.45
2018-10-18T07:48:58.789Z,100830.38
2018-10-18T07:54:02.304Z,100824.94
2018-10-18T07:59:05.849Z,100823.48
2018-10-18T08:04:09.259Z,100828.30
2018-10-18T08:09:13.860Z,100843.94
2018-10-18T08:14:17.273Z,100847.92
2018-10-18T08:19:20.744Z,100842.74
2018-10-18T08:24:24.156Z,100841.11
2018-10-18T08:29:27.569Z,100836.22
2018-10-18T08:34:31.018Z,100835.11
2018-10-18T08:39:34.424Z,100842.91
2018-10-18T08:44:37.915Z,100842.37
2018-10-18T08:49:41.310Z,100845.12
2018-10-18T08:54:44.765Z,100849.72
2018-10-18T08:59:48.182Z,100852.06
2018-10-18T09:04:51.617Z,100850.09
2018-10-18T09:09:55.070Z,100843.39
2018-10-18T09:14:58.507Z,100841.30
2018-10-18T09:20:01.949Z,100845.10
2018-10-18T09:25:07.054Z,100842.20
2018-10-18T09:30:11.911Z,100843.72
2018-10-18T09:35:15.321Z,100838.99
2018-10-18T09:40:18.774Z,100845.10
2018-10-18T09:45:22.232Z,100828.89
2018-10-18T09:50:25.673Z,100840.00
2018-10-18T09:55:29.157Z,100843.16
2018-10-18T10:00:37.958Z,100839.80
2018-10-18T10:05:41.596Z,100838.98
2018-10-18T10:10:45.024Z,100844.23
2018-10-18T10:15:48.470Z,100855.04
2018-10-18T10:20:51.909Z,100855.16
2018-10-18T10:25:55.345Z,100856.23
2018-10-18T10:30:58.843Z,100857.09
2018-10-18T10:36:02.236Z,100861.42
2018-10-18T10:41:06.096Z,100859.71
2018-10-18T10:46:09.503Z,100855.20
2018-10-18T10:51:13.004Z,100857.58
2018-10-18T10:56:16.456Z,100856.39
2018-10-18T11:01:20.885Z,100849.80
2018-10-18T11:06:24.592Z,100851.22
2018-10-18T11:11:28.028Z,100847.48
2018-10-18T11:16:31.460Z,100845.28
2018-10-18T11:21:34.918Z,100849.39
2018-10-18T11:26:38.367Z,100854.20
2018-10-18T11:31:41.809Z,100858.74
2018-10-18T11:36:45.253Z,100857.88
2018-10-18T11:41:48.731Z,100864.85
2018-10-18T11:46:52.181Z,100865.34
2018-10-18T11:51:55.669Z,100863.92
2018-10-18T11:56:59.140Z,100866.12
2018-10-18T12:02:02.641Z,100856.06
2018-10-18T12:07:06.529Z,100864.11
2018-10-18T12:12:09.974Z,100863.47
2018-10-18T12:17:13.571Z,100869.10
2018-10-18T12:22:16.981Z,100868.62
2018-10-18T12:27:20.438Z,100863.25
2018-10-18T12:32:23.993Z,100858.48
2018-10-18T12:37:27.446Z,100872.38
2018-10-18T12:42:31.204Z,100872.64
2018-10-18T12:47:34.633Z,100875.92
2018-10-18T12:52:38.077Z,100873.35
2018-10-18T12:57:41.534Z,100870.48
2018-10-18T13:02:44.974Z,100872.02
2018-10-18T13:07:48.451Z,100881.78
2018-10-18T13:12:51.887Z,100882.27
2018-10-18T13:17:55.423Z,100881.77
2018-10-18T13:22:58.847Z,100875.73
2018-10-18T13:28:02.289Z,100873.61
2018-10-18T13:33:06.110Z,100871.04
2018-10-18T13:38:09.616Z,100871.70
2018-10-18T13:43:13.024Z,100883.30
2018-10-18T13:48:16.534Z,100881.73
2018-10-18T13:53:19.946Z,100885.50
2018-10-18T13:58:35.831Z,100889.83
2018-10-18T14:03:39.275Z,100893.00
2018-10-18T14:08:42.874Z,100897.51
2018-10-18T14:13:46.309Z,100900.41
2018-10-18T14:18:49.768Z,100895.42
2018-10-18T14:23:53.215Z,100895.05
2018-10-18T14:28:56.775Z,100889.83
2018-10-18T14:34:00.211Z,100889.34
2018-10-18T14:39:03.725Z,100893.00
2018-10-18T14:44:07.504Z,100899.07
2018-10-18T14:49:10.921Z,100896.54
2018-10-18T14:54:14.401Z,100895.20
2018-10-18T14:59:19.150Z,100899.22
2018-10-18T15:04:22.637Z,100902.62
2018-10-18T15:09:26.494Z,100904.06
2018-10-18T15:14:29.977Z,100910.19
2018-10-18T15:19:33.420Z,100913.88
2018-10-18T15:24:36.912Z,100915.40
2018-10-18T15:29:40.405Z,100919.09
2018-10-18T15:34:43.847Z,100915.63
2018-10-18T15:39:47.309Z,100918.30
2018-10-18T15:44:51.435Z,100917.59
2018-10-18T15:49:54.871Z,100925.70
2018-10-18T15:54:58.304Z,100926.67
2018-10-18T16:00:01.748Z,100924.59
2018-10-18T16:05:06.682Z,100921.00
2018-10-18T16:10:10.476Z,100923.83
2018-10-18T16:15:13.910Z,100917.34
2018-10-18T16:20:17.413Z,100923.46
2018-10-18T16:25:20.838Z,100928.04
2018-10-18T16:30:24.469Z,100931.52
2018-10-18T16:35:27.898Z,100937.92
2018-10-18T16:40:31.329Z,100938.06
2018-10-18T16:45:34.786Z,100945.09
2018-10-18T16:50:38.204Z,100946.23
2018-10-18T16:55:41.633Z,100958.92
2018-10-18T17:00:45.086Z,100954.91
2018-10-18T17:05:48.579Z,100960.42
2018-10-18T17:10:51.969Z,100963.56
2018-10-18T17:15:55.425Z,100969.03
2018-10-18T17:20:58.988Z,100976.49
2018-10-18T17:26:02.417Z,100971.12
2018-10-18T17:31:05.963Z,100975.75
2018-10-18T17:36:09.445Z,100981.69
2018-10-18T17:41:12.894Z,100976.72
2018-10-18T17:46:16.448Z,100976.66
2018-10-18T17:51:19.794Z,100977.29
2018-10-18T17:56:23.227Z,100975.23
2018-10-18T18:01:26.694Z,100983.64
2018-10-18T18:06:30.343Z,100977.01
2018-10-18T18:11:33.639Z,100991.16
2018-10-18T18:16:37.106Z,100984.33
2018-10-18T18:21:40.517Z,100982.72
2018-10-18T18:26:45.501Z,100996.80
2018-10-18T18:31:47.422Z,100997.16
2018-10-18T18:36:50.911Z,101000.75
2018-10-18T18:41:54.357Z,101007.46
2018-10-18T18:46:57.817Z,101015.90
2018-10-18T18:52:01.237Z,101023.10
2018-10-18T18:57:04.724Z,101021.53
2018-10-18T19:02:08.130Z,101024.96
2018-10-18T19:07:11.567Z,101032.28
2018-10-18T19:12:15.055Z,101038.89
2018-10-18T19:17:18.485Z,101040.34
2018-10-18T19:22:21.905Z,101035.97
2018-10-18T19:27:25.362Z,101040.12
2018-10-18T19:32:28.801Z,101039.27
2018-10-18T19:37:32.219Z,101035.83
2018-10-18T19:42:35.698Z,101039.75
2018-10-18T19:47:39.542Z,101039.15
2018-10-18T19:52:43.044Z,101046.78
2018-10-18T19:57:46.409Z,101056.99
2018-10-18T20:02:49.838Z,101057.96
2018-10-18T20:07:53.295Z,101060.77
2018-10-18T20:12:56.745Z,101060.51
2018-10-18T20:18:00.568Z,101069.80
2018-10-18T20:23:03.951Z,101062.56
2018-10-18T20:28:07.397Z,101075.29
2018-10-18T20:33:10.846Z,101076.45
2018-10-18T20:38:14.254Z,101065.62
2018-10-18T20:43:17.660Z,101067.71
2018-10-18T20:48:21.081Z,101064.65
2018-10-18T20:53:24.480Z,101074.06
2018-10-18T20:58:27.972Z,101078.95
2018-10-18T21:03:31.551Z,101081.45
2018-10-18T21:08:35.010Z,101083.12
2018-10-18T21:13:38.434Z,101075.66
2018-10-18T21:18:41.869Z,101079.20
2018-10-18T21:23:45.339Z,101081.16
2018-10-18T21:28:48.831Z,101083.68
2018-10-18T21:33:52.536Z,101089.48
2018-10-18T21:38:55.970Z,101082.53
2018-10-18T21:43:59.391Z,101084.84
2018-10-18T21:49:02.831Z,101080.33
2018-10-18T21:54:06.654Z,101076.59
2018-10-18T21:59:10.225Z,101080.02
2018-10-18T22:04:13.898Z,101080.25
2018-10-18T22:09:17.703Z,101090.17
2018-10-18T22:14:21.280Z,101089.05
2018-10-18T22:19:24.779Z,101091.75
2018-10-18T22:24:28.290Z,101091.52
2018-10-18T22:29:31.822Z,101090.29
2018-10-18T22:34:35.370Z,101095.30
2018-10-18T22:39:38.791Z,101091.14
2018-10-18T22:44:42.329Z,101092.75
2018-10-18T22:49:45.834Z,101087.48
2018-10-18T22:54:49.308Z,101085.66
2018-10-18T22:59:52.737Z,101088.46
2018-10-18T23:04:56.191Z,101091.41
2018-10-18T23:09:59.757Z,101090.06
2018-10-18T23:15:03.364Z,101082.66
2018-10-18T23:20:07.491Z,101083.59
2018-10-18T23:25:10.918Z,101080.28
2018-10-18T23:30:14.326Z,101087.63
2018-10-18T23:35:17.738Z,101082.25
2018-10-18T23:40:21.261Z,101088.72
2018-10-18T23:45:24.703Z,101086.28
2018-10-18T23:50:28.131Z,101083.83
2018-10-18T23:55:31.549Z,101083.83
